Surfer 226 — FNNH — position and weather

sailwx.info

Track history (hours):
 
Tides and Currents Weather Stations Pressure Air Temp Water Temp Dewpoint Dewpoint Depression Visibility Wind Speed Wind Dir Waves Ship Positions

Surfer 226

Last reported at 2018-Jun-17 15:59 UTC. Time now 2018-Jun-25 03:48 UTC.
Position S 07°03' E 012°22'.

Length 22 m; draft 1 m.

MMSI: 635016400.

Date/timePositionNaut miles runAvg speedWind from/ knotsBaromVisibWave heightAir tempDewpointWater temp
2018-Jun-17 15:59S 07°03' E 012°22'0 0.0
2018-Jun-17 15:30S 07°03' E 012°22'0 0.0
2018-Jun-17 15:00S 07°03' E 012°22'0 0.0
2018-Jun-17 14:30S 07°03' E 012°22'0 0.0
2018-Jun-17 13:59S 07°03' E 012°22'0 0.0
2018-Jun-17 13:30S 07°03' E 012°22'0 0.0
2018-Jun-17 13:00S 07°03' E 012°22'0 0.0
2018-Jun-17 12:30S 07°03' E 012°22'8 0.2
2018-Jun-15 09:39S 07°10' E 012°23'211.6
2018-Jun-15 09:30S 07°12' E 012°23'0 0.8
2018-Jun-15 09:00S 07°12' E 012°23'3 4.5
2018-Jun-15 08:26S 07°10' E 012°23'0 0.8
2018-Jun-15 07:57S 07°10' E 012°23'0 1.0
2018-Jun-15 07:29S 07°10' E 012°23'714.4
2018-Jun-15 07:00S 07°04' E 012°22'1 1.2
2018-Jun-15 06:30S 07°03' E 012°22'3 6.8
2018-Jun-15 06:01S 07°06' E 012°21'2 3.1
2018-Jun-15 05:31S 07°07' E 012°22'4 8.7
2018-Jun-15 05:00S 07°03' E 012°22'1 0.0
2018-Jun-14 16:19S 07°03' E 012°22'721.2
2018-Jun-14 16:00S 07°10' E 012°23'1 2.2
2018-Jun-14 15:30S 07°10' E 012°22'0 0.0
2018-Jun-14 15:00S 07°10' E 012°22'0 0.0
2018-Jun-14 14:31S 07°10' E 012°22'1 2.7
2018-Jun-14 14:00S 07°11' E 012°23'2 3.4
2018-Jun-14 13:30S 07°12' E 012°23'2 3.8
2018-Jun-14 13:00S 07°10' E 012°23'1 2.5
2018-Jun-14 12:30S 07°10' E 012°22'0 0.0
2018-Jun-14 12:00S 07°10' E 012°22'0 0.0
2018-Jun-14 11:30S 07°10' E 012°22'1 2.6
2018-Jun-14 11:00S 07°10' E 012°23'0 0.3
2018-Jun-14 10:30S 07°11' E 012°23'714.6
2018-Jun-14 10:00S 07°03' E 012°22'917.6
2018-Jun-14 09:30S 07°12' E 012°23'0 0.6
2018-Jun-14 08:59S 07°12' E 012°23'1 0.9
2018-Jun-14 08:17S 07°12' E 012°23'2 6.4
2018-Jun-14 08:00S 07°10' E 012°23'0 0.0
2018-Jun-14 07:30S 07°10' E 012°23'714.1
2018-Jun-14 06:59S 07°03' E 012°22'0 0.3
2018-Jun-14 06:30S 07°03' E 012°22'4 8.3
2018-Jun-14 06:00S 07°07' E 012°23'1 1.7
2018-Jun-14 05:30S 07°08' E 012°23'510.3
2018-Jun-14 04:58S 07°03' E 012°22'  
2018-Jun-09 08:12S 07°07' E 012°22'0 0.0
2018-Jun-09 08:00S 07°07' E 012°22'0 0.0
2018-Jun-08 15:40S 07°07' E 012°22'  
Track history (hours):
 
Tides and Currents Weather Stations Pressure Air Temp Water Temp Dewpoint Dewpoint Depression Visibility Wind Speed Wind Dir Waves Ship Positions

Surfer 226

Last reported at 2018-Jun-17 15:59 UTC. Time now 2018-Jun-25 03:48 UTC.
Position S 07°03' E 012°22'.

Length 22 m; draft 1 m.

MMSI: 635016400.

Date/timePositionNaut miles runAvg speedWind from/ knotsBaromVisibWave heightAir tempDewpointWater temp
2018-Jun-17 15:59S 07°03' E 012°22'0 0.0
2018-Jun-17 15:30S 07°03' E 012°22'0 0.0
2018-Jun-17 15:00S 07°03' E 012°22'0 0.0
2018-Jun-17 14:30S 07°03' E 012°22'0 0.0
2018-Jun-17 13:59S 07°03' E 012°22'0 0.0
2018-Jun-17 13:30S 07°03' E 012°22'0 0.0
2018-Jun-17 13:00S 07°03' E 012°22'0 0.0
2018-Jun-17 12:30S 07°03' E 012°22'8 0.2
2018-Jun-15 09:39S 07°10' E 012°23'211.6
2018-Jun-15 09:30S 07°12' E 012°23'0 0.8
2018-Jun-15 09:00S 07°12' E 012°23'3 4.5
2018-Jun-15 08:26S 07°10' E 012°23'0 0.8
2018-Jun-15 07:57S 07°10' E 012°23'0 1.0
2018-Jun-15 07:29S 07°10' E 012°23'714.4
2018-Jun-15 07:00S 07°04' E 012°22'1 1.2
2018-Jun-15 06:30S 07°03' E 012°22'3 6.8
2018-Jun-15 06:01S 07°06' E 012°21'2 3.1
2018-Jun-15 05:31S 07°07' E 012°22'4 8.7
2018-Jun-15 05:00S 07°03' E 012°22'1 0.0
2018-Jun-14 16:19S 07°03' E 012°22'721.2
2018-Jun-14 16:00S 07°10' E 012°23'1 2.2
2018-Jun-14 15:30S 07°10' E 012°22'0 0.0
2018-Jun-14 15:00S 07°10' E 012°22'0 0.0
2018-Jun-14 14:31S 07°10' E 012°22'1 2.7
2018-Jun-14 14:00S 07°11' E 012°23'2 3.4
2018-Jun-14 13:30S 07°12' E 012°23'2 3.8
2018-Jun-14 13:00S 07°10' E 012°23'1 2.5
2018-Jun-14 12:30S 07°10' E 012°22'0 0.0
2018-Jun-14 12:00S 07°10' E 012°22'0 0.0
2018-Jun-14 11:30S 07°10' E 012°22'1 2.6
2018-Jun-14 11:00S 07°10' E 012°23'0 0.3
2018-Jun-14 10:30S 07°11' E 012°23'714.6
2018-Jun-14 10:00S 07°03' E 012°22'917.6
2018-Jun-14 09:30S 07°12' E 012°23'0 0.6
2018-Jun-14 08:59S 07°12' E 012°23'1 0.9
2018-Jun-14 08:17S 07°12' E 012°23'2 6.4
2018-Jun-14 08:00S 07°10' E 012°23'0 0.0
2018-Jun-14 07:30S 07°10' E 012°23'714.1
2018-Jun-14 06:59S 07°03' E 012°22'0 0.3
2018-Jun-14 06:30S 07°03' E 012°22'4 8.3
2018-Jun-14 06:00S 07°07' E 012°23'1 1.7
2018-Jun-14 05:30S 07°08' E 012°23'510.3
2018-Jun-14 04:58S 07°03' E 012°22'  
2018-Jun-09 08:12S 07°07' E 012°22'0 0.0
2018-Jun-09 08:00S 07°07' E 012°22'0 0.0
2018-Jun-08 15:40S 07°07' E 012°22'  

Dump ship's entire track history